sensor_id;sensor_type;location;lat;lon;timestamp;P1;durP1;ratioP1;P2;durP2;ratioP2
74908;SDS011;63468;52.058;4.824;2024-03-25T00:00:17;17.75;;;15.77;;
74908;SDS011;63468;52.058;4.824;2024-03-25T00:02:43;17.30;;;15.45;;
74908;SDS011;63468;52.058;4.824;2024-03-25T00:05:08;14.25;;;12.80;;
74908;SDS011;63468;52.058;4.824;2024-03-25T00:07:34;15.18;;;13.63;;
74908;SDS011;63468;52.058;4.824;2024-03-25T00:10:00;27.73;;;14.85;;
74908;SDS011;63468;52.058;4.824;2024-03-25T00:12:26;16.83;;;15.23;;
74908;SDS011;63468;52.058;4.824;2024-03-25T00:14:52;17.48;;;15.93;;
74908;SDS011;63468;52.058;4.824;2024-03-25T00:17:17;19.20;;;15.27;;
74908;SDS011;63468;52.058;4.824;2024-03-25T00:19:42;16.65;;;13.80;;
74908;SDS011;63468;52.058;4.824;2024-03-25T00:22:08;16.10;;;13.07;;
74908;SDS011;63468;52.058;4.824;2024-03-25T00:24:33;18.58;;;13.20;;
74908;SDS011;63468;52.058;4.824;2024-03-25T00:26:59;19.02;;;15.02;;
74908;SDS011;63468;52.058;4.824;2024-03-25T00:29:24;16.83;;;15.48;;
74908;SDS011;63468;52.058;4.824;2024-03-25T00:31:49;16.50;;;14.93;;
74908;SDS011;63468;52.058;4.824;2024-03-25T00:34:15;18.50;;;14.20;;
74908;SDS011;63468;52.058;4.824;2024-03-25T00:36:40;13.32;;;12.02;;
74908;SDS011;63468;52.058;4.824;2024-03-25T00:39:05;25.40;;;13.25;;
74908;SDS011;63468;52.058;4.824;2024-03-25T00:41:32;18.02;;;15.25;;
74908;SDS011;63468;52.058;4.824;2024-03-25T00:43:57;19.05;;;16.58;;
74908;SDS011;63468;52.058;4.824;2024-03-25T00:46:23;18.98;;;16.25;;
74908;SDS011;63468;52.058;4.824;2024-03-25T00:48:48;15.75;;;13.77;;
74908;SDS011;63468;52.058;4.824;2024-03-25T00:51:13;18.92;;;15.35;;
74908;SDS011;63468;52.058;4.824;2024-03-25T00:53:39;16.70;;;14.35;;
74908;SDS011;63468;52.058;4.824;2024-03-25T00:56:04;18.25;;;15.25;;
74908;SDS011;63468;52.058;4.824;2024-03-25T00:58:30;17.30;;;15.00;;
74908;SDS011;63468;52.058;4.824;2024-03-25T01:00:55;19.02;;;16.15;;
74908;SDS011;63468;52.058;4.824;2024-03-25T01:03:20;18.95;;;17.08;;
74908;SDS011;63468;52.058;4.824;2024-03-25T01:05:46;19.02;;;16.17;;
74908;SDS011;63468;52.058;4.824;2024-03-25T01:08:11;18.27;;;16.65;;
74908;SDS011;63468;52.058;4.824;2024-03-25T01:10:38;17.67;;;16.27;;
74908;SDS011;63468;52.058;4.824;2024-03-25T01:13:04;19.48;;;16.23;;
74908;SDS011;63468;52.058;4.824;2024-03-25T01:15:29;17.40;;;15.77;;
74908;SDS011;63468;52.058;4.824;2024-03-25T01:17:54;20.05;;;17.15;;
74908;SDS011;63468;52.058;4.824;2024-03-25T01:20:20;16.88;;;15.38;;
74908;SDS011;63468;52.058;4.824;2024-03-25T01:22:45;16.65;;;15.13;;
74908;SDS011;63468;52.058;4.824;2024-03-25T01:25:10;19.60;;;15.63;;
74908;SDS011;63468;52.058;4.824;2024-03-25T01:27:36;17.88;;;15.88;;
74908;SDS011;63468;52.058;4.824;2024-03-25T01:30:01;17.92;;;15.85;;
74908;SDS011;63468;52.058;4.824;2024-03-25T01:32:29;17.67;;;16.13;;
74908;SDS011;63468;52.058;4.824;2024-03-25T01:34:55;19.95;;;17.83;;
74908;SDS011;63468;52.058;4.824;2024-03-25T01:37:20;19.08;;;17.50;;
74908;SDS011;63468;52.058;4.824;2024-03-25T01:39:46;20.92;;;17.15;;
74908;SDS011;63468;52.058;4.824;2024-03-25T01:42:11;19.98;;;16.17;;
74908;SDS011;63468;52.058;4.824;2024-03-25T01:44:36;17.80;;;15.13;;
74908;SDS011;63468;52.058;4.824;2024-03-25T01:47:02;22.52;;;16.88;;
74908;SDS011;63468;52.058;4.824;2024-03-25T01:49:28;18.30;;;16.38;;
74908;SDS011;63468;52.058;4.824;2024-03-25T01:51:53;17.77;;;16.17;;
74908;SDS011;63468;52.058;4.824;2024-03-25T01:54:19;19.63;;;16.98;;
74908;SDS011;63468;52.058;4.824;2024-03-25T01:56:44;18.98;;;17.00;;
74908;SDS011;63468;52.058;4.824;2024-03-25T01:59:11;19.13;;;16.52;;
74908;SDS011;63468;52.058;4.824;2024-03-25T02:01:38;19.55;;;17.23;;
74908;SDS011;63468;52.058;4.824;2024-03-25T02:04:03;19.67;;;17.67;;
74908;SDS011;63468;52.058;4.824;2024-03-25T02:06:29;19.13;;;17.25;;
74908;SDS011;63468;52.058;4.824;2024-03-25T02:08:56;17.10;;;15.32;;
74908;SDS011;63468;52.058;4.824;2024-03-25T02:11:22;17.52;;;15.75;;
74908;SDS011;63468;52.058;4.824;2024-03-25T02:13:48;23.17;;;17.55;;
74908;SDS011;63468;52.058;4.824;2024-03-25T02:16:15;17.35;;;15.52;;
74908;SDS011;63468;52.058;4.824;2024-03-25T02:18:40;19.17;;;17.23;;
74908;SDS011;63468;52.058;4.824;2024-03-25T02:21:06;19.40;;;15.75;;
74908;SDS011;63468;52.058;4.824;2024-03-25T02:23:31;18.58;;;16.40;;
74908;SDS011;63468;52.058;4.824;2024-03-25T02:25:57;21.40;;;16.35;;
74908;SDS011;63468;52.058;4.824;2024-03-25T02:28:22;19.75;;;16.00;;
74908;SDS011;63468;52.058;4.824;2024-03-25T02:30:47;17.27;;;15.68;;
74908;SDS011;63468;52.058;4.824;2024-03-25T02:33:13;17.88;;;16.15;;
74908;SDS011;63468;52.058;4.824;2024-03-25T02:35:39;17.08;;;15.55;;
74908;SDS011;63468;52.058;4.824;2024-03-25T02:38:06;17.60;;;16.15;;
74908;SDS011;63468;52.058;4.824;2024-03-25T02:40:31;18.30;;;16.05;;
74908;SDS011;63468;52.058;4.824;2024-03-25T02:42:57;17.63;;;15.82;;
74908;SDS011;63468;52.058;4.824;2024-03-25T02:45:23;19.98;;;15.95;;
74908;SDS011;63468;52.058;4.824;2024-03-25T02:47:49;16.60;;;15.15;;
74908;SDS011;63468;52.058;4.824;2024-03-25T02:50:15;18.17;;;16.38;;
74908;SDS011;63468;52.058;4.824;2024-03-25T02:52:40;16.30;;;14.68;;
74908;SDS011;63468;52.058;4.824;2024-03-25T02:55:06;16.52;;;14.90;;
74908;SDS011;63468;52.058;4.824;2024-03-25T02:57:31;16.45;;;14.77;;
74908;SDS011;63468;52.058;4.824;2024-03-25T02:59:56;17.10;;;15.40;;
74908;SDS011;63468;52.058;4.824;2024-03-25T03:02:22;17.38;;;15.02;;
74908;SDS011;63468;52.058;4.824;2024-03-25T03:04:47;17.20;;;15.65;;
74908;SDS011;63468;52.058;4.824;2024-03-25T03:07:12;15.85;;;14.50;;
74908;SDS011;63468;52.058;4.824;2024-03-25T03:09:38;16.80;;;15.07;;
74908;SDS011;63468;52.058;4.824;2024-03-25T03:12:03;20.48;;;16.00;;
74908;SDS011;63468;52.058;4.824;2024-03-25T03:14:29;18.45;;;16.35;;
74908;SDS011;63468;52.058;4.824;2024-03-25T03:16:54;16.35;;;15.18;;
74908;SDS011;63468;52.058;4.824;2024-03-25T03:19:23;16.35;;;14.70;;
74908;SDS011;63468;52.058;4.824;2024-03-25T03:21:51;16.25;;;14.95;;
74908;SDS011;63468;52.058;4.824;2024-03-25T03:24:16;15.95;;;14.63;;
74908;SDS011;63468;52.058;4.824;2024-03-25T03:26:43;16.70;;;15.13;;
74908;SDS011;63468;52.058;4.824;2024-03-25T03:29:09;16.85;;;15.32;;
74908;SDS011;63468;52.058;4.824;2024-03-25T03:31:34;20.13;;;16.10;;
74908;SDS011;63468;52.058;4.824;2024-03-25T03:33:59;20.83;;;15.05;;
74908;SDS011;63468;52.058;4.824;2024-03-25T03:36:25;17.80;;;16.17;;
74908;SDS011;63468;52.058;4.824;2024-03-25T03:38:50;17.00;;;15.57;;
74908;SDS011;63468;52.058;4.824;2024-03-25T03:41:16;15.75;;;14.48;;
74908;SDS011;63468;52.058;4.824;2024-03-25T03:43:41;16.33;;;14.68;;
74908;SDS011;63468;52.058;4.824;2024-03-25T03:46:07;15.98;;;14.38;;
74908;SDS011;63468;52.058;4.824;2024-03-25T03:48:32;15.73;;;14.25;;
74908;SDS011;63468;52.058;4.824;2024-03-25T03:50:57;16.48;;;14.98;;
74908;SDS011;63468;52.058;4.824;2024-03-25T03:53:23;16.13;;;14.70;;
74908;SDS011;63468;52.058;4.824;2024-03-25T03:55:55;16.90;;;14.30;;
74908;SDS011;63468;52.058;4.824;2024-03-25T03:58:21;16.63;;;15.20;;
74908;SDS011;63468;52.058;4.824;2024-03-25T04:00:46;18.25;;;15.27;;
74908;SDS011;63468;52.058;4.824;2024-03-25T04:03:12;16.77;;;14.93;;
74908;SDS011;63468;52.058;4.824;2024-03-25T04:05:38;16.15;;;14.90;;
74908;SDS011;63468;52.058;4.824;2024-03-25T04:08:03;15.70;;;14.35;;
74908;SDS011;63468;52.058;4.824;2024-03-25T04:10:29;17.08;;;14.98;;
74908;SDS011;63468;52.058;4.824;2024-03-25T04:12:54;17.02;;;15.25;;
74908;SDS011;63468;52.058;4.824;2024-03-25T04:15:20;15.73;;;14.13;;
74908;SDS011;63468;52.058;4.824;2024-03-25T04:17:47;15.82;;;14.45;;
74908;SDS011;63468;52.058;4.824;2024-03-25T04:20:14;15.30;;;13.98;;
74908;SDS011;63468;52.058;4.824;2024-03-25T04:22:43;18.67;;;14.40;;
74908;SDS011;63468;52.058;4.824;2024-03-25T04:25:09;18.50;;;15.77;;
74908;SDS011;63468;52.058;4.824;2024-03-25T04:27:39;20.40;;;14.93;;
74908;SDS011;63468;52.058;4.824;2024-03-25T04:30:08;16.73;;;15.13;;
74908;SDS011;63468;52.058;4.824;2024-03-25T04:32:34;17.73;;;15.07;;
74908;SDS011;63468;52.058;4.824;2024-03-25T04:35:00;19.55;;;14.77;;
74908;SDS011;63468;52.058;4.824;2024-03-25T04:37:26;15.77;;;14.40;;
74908;SDS011;63468;52.058;4.824;2024-03-25T04:39:53;16.17;;;14.38;;
74908;SDS011;63468;52.058;4.824;2024-03-25T04:42:18;16.65;;;15.23;;
74908;SDS011;63468;52.058;4.824;2024-03-25T04:44:44;15.60;;;14.05;;
74908;SDS011;63468;52.058;4.824;2024-03-25T04:47:09;15.80;;;14.27;;
74908;SDS011;63468;52.058;4.824;2024-03-25T04:49:34;15.30;;;13.75;;
74908;SDS011;63468;52.058;4.824;2024-03-25T04:52:00;16.25;;;13.48;;
74908;SDS011;63468;52.058;4.824;2024-03-25T04:54:25;19.45;;;15.07;;
74908;SDS011;63468;52.058;4.824;2024-03-25T04:56:50;16.23;;;14.88;;
74908;SDS011;63468;52.058;4.824;2024-03-25T04:59:16;17.70;;;13.63;;
74908;SDS011;63468;52.058;4.824;2024-03-25T05:01:41;15.40;;;13.85;;
74908;SDS011;63468;52.058;4.824;2024-03-25T05:04:06;15.43;;;13.70;;
74908;SDS011;63468;52.058;4.824;2024-03-25T05:06:35;16.73;;;14.40;;
74908;SDS011;63468;52.058;4.824;2024-03-25T05:09:00;16.48;;;14.82;;
74908;SDS011;63468;52.058;4.824;2024-03-25T05:11:26;16.98;;;15.35;;
74908;SDS011;63468;52.058;4.824;2024-03-25T05:13:51;16.27;;;14.80;;
74908;SDS011;63468;52.058;4.824;2024-03-25T05:16:17;15.98;;;14.43;;
74908;SDS011;63468;52.058;4.824;2024-03-25T05:18:42;16.88;;;13.32;;
74908;SDS011;63468;52.058;4.824;2024-03-25T05:21:07;15.88;;;14.35;;
74908;SDS011;63468;52.058;4.824;2024-03-25T05:23:33;17.05;;;14.60;;
74908;SDS011;63468;52.058;4.824;2024-03-25T05:25:58;16.05;;;14.35;;
74908;SDS011;63468;52.058;4.824;2024-03-25T05:28:23;18.25;;;14.05;;
74908;SDS011;63468;52.058;4.824;2024-03-25T05:30:49;20.00;;;14.10;;
74908;SDS011;63468;52.058;4.824;2024-03-25T05:33:14;16.00;;;13.77;;
74908;SDS011;63468;52.058;4.824;2024-03-25T05:35:40;16.73;;;14.05;;
74908;SDS011;63468;52.058;4.824;2024-03-25T05:38:06;14.48;;;12.98;;
74908;SDS011;63468;52.058;4.824;2024-03-25T05:40:32;15.88;;;12.45;;
74908;SDS011;63468;52.058;4.824;2024-03-25T05:42:57;13.98;;;12.52;;
74908;SDS011;63468;52.058;4.824;2024-03-25T05:45:22;16.60;;;12.90;;
74908;SDS011;63468;52.058;4.824;2024-03-25T05:47:49;15.10;;;11.88;;
74908;SDS011;63468;52.058;4.824;2024-03-25T05:50:15;16.45;;;12.95;;
74908;SDS011;63468;52.058;4.824;2024-03-25T05:52:41;14.07;;;12.80;;
74908;SDS011;63468;52.058;4.824;2024-03-25T05:55:06;15.85;;;13.93;;
74908;SDS011;63468;52.058;4.824;2024-03-25T05:57:32;14.32;;;12.88;;
74908;SDS011;63468;52.058;4.824;2024-03-25T05:59:57;14.20;;;12.63;;
74908;SDS011;63468;52.058;4.824;2024-03-25T06:02:23;14.75;;;13.27;;
74908;SDS011;63468;52.058;4.824;2024-03-25T06:04:49;15.23;;;13.65;;
74908;SDS011;63468;52.058;4.824;2024-03-25T06:07:14;15.55;;;13.88;;
74908;SDS011;63468;52.058;4.824;2024-03-25T06:09:39;21.33;;;14.00;;
74908;SDS011;63468;52.058;4.824;2024-03-25T06:12:05;15.68;;;14.10;;
74908;SDS011;63468;52.058;4.824;2024-03-25T06:14:30;15.15;;;13.65;;
74908;SDS011;63468;52.058;4.824;2024-03-25T06:16:56;16.42;;;14.88;;
74908;SDS011;63468;52.058;4.824;2024-03-25T06:19:21;16.00;;;14.45;;
74908;SDS011;63468;52.058;4.824;2024-03-25T06:21:46;18.10;;;16.42;;
74908;SDS011;63468;52.058;4.824;2024-03-25T06:24:12;16.85;;;14.65;;
74908;SDS011;63468;52.058;4.824;2024-03-25T06:26:37;15.48;;;14.18;;
74908;SDS011;63468;52.058;4.824;2024-03-25T06:29:02;19.33;;;15.15;;
74908;SDS011;63468;52.058;4.824;2024-03-25T06:31:28;19.77;;;15.05;;
74908;SDS011;63468;52.058;4.824;2024-03-25T06:34:11;17.88;;;16.20;;
74908;SDS011;63468;52.058;4.824;2024-03-25T06:36:46;17.23;;;14.75;;
74908;SDS011;63468;52.058;4.824;2024-03-25T06:39:12;17.67;;;15.02;;
74908;SDS011;63468;52.058;4.824;2024-03-25T06:41:38;16.98;;;15.38;;
74908;SDS011;63468;52.058;4.824;2024-03-25T06:44:04;19.55;;;15.18;;
74908;SDS011;63468;52.058;4.824;2024-03-25T06:46:30;27.02;;;16.35;;
74908;SDS011;63468;52.058;4.824;2024-03-25T06:48:55;17.83;;;16.33;;
74908;SDS011;63468;52.058;4.824;2024-03-25T06:51:20;17.33;;;15.48;;
74908;SDS011;63468;52.058;4.824;2024-03-25T06:53:46;18.27;;;16.45;;
74908;SDS011;63468;52.058;4.824;2024-03-25T06:56:11;19.55;;;17.60;;
74908;SDS011;63468;52.058;4.824;2024-03-25T06:58:36;19.70;;;17.58;;
74908;SDS011;63468;52.058;4.824;2024-03-25T07:01:06;18.95;;;17.13;;
74908;SDS011;63468;52.058;4.824;2024-03-25T07:03:32;20.00;;;17.40;;
74908;SDS011;63468;52.058;4.824;2024-03-25T07:05:58;18.05;;;16.25;;
74908;SDS011;63468;52.058;4.824;2024-03-25T07:08:27;18.30;;;16.52;;
74908;SDS011;63468;52.058;4.824;2024-03-25T07:10:53;17.55;;;15.73;;
74908;SDS011;63468;52.058;4.824;2024-03-25T07:13:19;17.23;;;15.60;;
74908;SDS011;63468;52.058;4.824;2024-03-25T07:15:44;21.45;;;16.90;;
74908;SDS011;63468;52.058;4.824;2024-03-25T07:18:10;21.85;;;16.48;;
74908;SDS011;63468;52.058;4.824;2024-03-25T07:20:37;17.95;;;16.17;;
74908;SDS011;63468;52.058;4.824;2024-03-25T07:23:03;17.98;;;16.02;;
74908;SDS011;63468;52.058;4.824;2024-03-25T07:25:28;21.50;;;16.13;;
74908;SDS011;63468;52.058;4.824;2024-03-25T07:27:54;17.67;;;15.43;;
74908;SDS011;63468;52.058;4.824;2024-03-25T07:30:20;22.90;;;14.93;;
74908;SDS011;63468;52.058;4.824;2024-03-25T07:32:47;17.55;;;14.02;;
74908;SDS011;63468;52.058;4.824;2024-03-25T07:35:12;15.93;;;13.57;;
74908;SDS011;63468;52.058;4.824;2024-03-25T07:37:38;16.92;;;12.63;;
74908;SDS011;63468;52.058;4.824;2024-03-25T07:40:04;14.77;;;13.35;;
74908;SDS011;63468;52.058;4.824;2024-03-25T07:42:30;17.58;;;14.18;;
74908;SDS011;63468;52.058;4.824;2024-03-25T07:44:55;17.30;;;13.85;;
74908;SDS011;63468;52.058;4.824;2024-03-25T07:47:21;17.83;;;14.48;;
74908;SDS011;63468;52.058;4.824;2024-03-25T07:49:46;16.38;;;14.68;;
74908;SDS011;63468;52.058;4.824;2024-03-25T07:52:12;17.40;;;15.65;;
74908;SDS011;63468;52.058;4.824;2024-03-25T07:54:37;21.85;;;16.85;;
74908;SDS011;63468;52.058;4.824;2024-03-25T07:57:03;24.08;;;19.02;;
74908;SDS011;63468;52.058;4.824;2024-03-25T07:59:29;18.63;;;16.65;;
74908;SDS011;63468;52.058;4.824;2024-03-25T08:01:54;17.98;;;16.27;;
74908;SDS011;63468;52.058;4.824;2024-03-25T08:04:19;22.15;;;16.98;;
74908;SDS011;63468;52.058;4.824;2024-03-25T08:06:45;17.95;;;16.02;;
74908;SDS011;63468;52.058;4.824;2024-03-25T08:09:10;16.95;;;15.35;;
74908;SDS011;63468;52.058;4.824;2024-03-25T08:11:38;20.13;;;16.42;;
74908;SDS011;63468;52.058;4.824;2024-03-25T08:14:03;19.38;;;16.75;;
74908;SDS011;63468;52.058;4.824;2024-03-25T08:16:28;18.25;;;16.30;;
74908;SDS011;63468;52.058;4.824;2024-03-25T08:18:54;18.48;;;14.55;;
74908;SDS011;63468;52.058;4.824;2024-03-25T08:21:19;18.30;;;15.57;;
74908;SDS011;63468;52.058;4.824;2024-03-25T08:23:45;18.27;;;15.73;;
74908;SDS011;63468;52.058;4.824;2024-03-25T08:26:10;21.92;;;17.30;;
74908;SDS011;63468;52.058;4.824;2024-03-25T08:28:36;22.27;;;17.15;;
74908;SDS011;63468;52.058;4.824;2024-03-25T08:31:01;22.92;;;17.58;;
74908;SDS011;63468;52.058;4.824;2024-03-25T08:33:26;20.05;;;16.77;;
74908;SDS011;63468;52.058;4.824;2024-03-25T08:35:53;25.80;;;17.50;;
74908;SDS011;63468;52.058;4.824;2024-03-25T08:38:18;23.65;;;16.42;;
74908;SDS011;63468;52.058;4.824;2024-03-25T08:40:44;19.05;;;16.98;;
74908;SDS011;63468;52.058;4.824;2024-03-25T08:43:09;19.15;;;16.65;;
74908;SDS011;63468;52.058;4.824;2024-03-25T08:45:34;21.63;;;17.05;;
74908;SDS011;63468;52.058;4.824;2024-03-25T08:48:00;19.90;;;17.83;;
74908;SDS011;63468;52.058;4.824;2024-03-25T08:50:25;18.73;;;16.80;;
74908;SDS011;63468;52.058;4.824;2024-03-25T08:52:50;19.42;;;17.52;;
74908;SDS011;63468;52.058;4.824;2024-03-25T08:55:16;24.08;;;17.55;;
74908;SDS011;63468;52.058;4.824;2024-03-25T08:57:41;19.05;;;17.05;;
74908;SDS011;63468;52.058;4.824;2024-03-25T09:00:07;20.45;;;17.35;;
74908;SDS011;63468;52.058;4.824;2024-03-25T09:02:35;24.38;;;17.88;;
74908;SDS011;63468;52.058;4.824;2024-03-25T09:05:01;27.98;;;17.52;;
74908;SDS011;63468;52.058;4.824;2024-03-25T09:07:30;23.95;;;16.35;;
74908;SDS011;63468;52.058;4.824;2024-03-25T09:09:55;20.17;;;17.60;;
74908;SDS011;63468;52.058;4.824;2024-03-25T09:12:39;18.88;;;16.25;;
74908;SDS011;63468;52.058;4.824;2024-03-25T09:15:05;21.55;;;16.83;;
74908;SDS011;63468;52.058;4.824;2024-03-25T09:17:30;26.67;;;17.75;;
74908;SDS011;63468;52.058;4.824;2024-03-25T09:19:56;22.08;;;16.75;;
74908;SDS011;63468;52.058;4.824;2024-03-25T09:22:21;19.17;;;17.00;;
74908;SDS011;63468;52.058;4.824;2024-03-25T09:24:48;18.52;;;16.50;;
74908;SDS011;63468;52.058;4.824;2024-03-25T09:27:14;18.95;;;16.80;;
74908;SDS011;63468;52.058;4.824;2024-03-25T09:29:40;20.58;;;16.83;;
74908;SDS011;63468;52.058;4.824;2024-03-25T09:32:06;18.73;;;16.58;;
74908;SDS011;63468;52.058;4.824;2024-03-25T09:34:32;19.15;;;17.17;;
74908;SDS011;63468;52.058;4.824;2024-03-25T09:36:57;18.58;;;16.77;;
74908;SDS011;63468;52.058;4.824;2024-03-25T09:39:23;23.10;;;17.40;;
74908;SDS011;63468;52.058;4.824;2024-03-25T09:41:48;18.17;;;16.30;;
74908;SDS011;63468;52.058;4.824;2024-03-25T09:44:15;20.95;;;17.38;;
74908;SDS011;63468;52.058;4.824;2024-03-25T09:46:42;17.42;;;15.70;;
74908;SDS011;63468;52.058;4.824;2024-03-25T09:49:07;17.88;;;16.10;;
74908;SDS011;63468;52.058;4.824;2024-03-25T09:51:33;17.65;;;15.48;;
74908;SDS011;63468;52.058;4.824;2024-03-25T09:53:58;18.48;;;16.45;;
74908;SDS011;63468;52.058;4.824;2024-03-25T09:56:23;17.10;;;15.35;;
74908;SDS011;63468;52.058;4.824;2024-03-25T09:58:49;18.52;;;16.20;;
74908;SDS011;63468;52.058;4.824;2024-03-25T10:01:15;17.90;;;16.10;;
74908;SDS011;63468;52.058;4.824;2024-03-25T10:03:41;18.27;;;16.35;;
74908;SDS011;63468;52.058;4.824;2024-03-25T10:06:06;17.52;;;15.13;;
74908;SDS011;63468;52.058;4.824;2024-03-25T10:08:34;17.60;;;15.80;;
74908;SDS011;63468;52.058;4.824;2024-03-25T10:11:00;15.90;;;14.30;;
74908;SDS011;63468;52.058;4.824;2024-03-25T10:13:27;16.20;;;14.60;;
74908;SDS011;63468;52.058;4.824;2024-03-25T10:15:52;17.13;;;15.07;;
74908;SDS011;63468;52.058;4.824;2024-03-25T10:18:19;21.05;;;16.45;;
74908;SDS011;63468;52.058;4.824;2024-03-25T10:20:51;16.85;;;15.35;;
74908;SDS011;63468;52.058;4.824;2024-03-25T10:23:23;17.15;;;15.50;;
74908;SDS011;63468;52.058;4.824;2024-03-25T10:25:51;17.58;;;15.75;;
74908;SDS011;63468;52.058;4.824;2024-03-25T10:28:17;16.75;;;15.15;;
74908;SDS011;63468;52.058;4.824;2024-03-25T10:30:42;18.73;;;16.95;;
74908;SDS011;63468;52.058;4.824;2024-03-25T10:33:08;20.08;;;16.85;;
74908;SDS011;63468;52.058;4.824;2024-03-25T10:35:35;20.70;;;16.58;;
74908;SDS011;63468;52.058;4.824;2024-03-25T10:40:30;18.38;;;16.30;;
74908;SDS011;63468;52.058;4.824;2024-03-25T10:43:00;21.17;;;17.35;;
74908;SDS011;63468;52.058;4.824;2024-03-25T10:47:57;17.73;;;16.02;;
74908;SDS011;63468;52.058;4.824;2024-03-25T10:50:24;21.67;;;16.55;;
74908;SDS011;63468;52.058;4.824;2024-03-25T10:52:53;21.00;;;17.55;;
74908;SDS011;63468;52.058;4.824;2024-03-25T10:55:19;21.95;;;17.15;;
74908;SDS011;63468;52.058;4.824;2024-03-25T10:57:45;18.67;;;16.60;;
74908;SDS011;63468;52.058;4.824;2024-03-25T11:00:12;18.60;;;16.55;;
74908;SDS011;63468;52.058;4.824;2024-03-25T11:02:40;22.33;;;17.77;;
74908;SDS011;63468;52.058;4.824;2024-03-25T11:05:06;21.30;;;17.85;;
74908;SDS011;63468;52.058;4.824;2024-03-25T11:07:32;21.83;;;15.95;;
74908;SDS011;63468;52.058;4.824;2024-03-25T11:10:07;17.92;;;14.30;;
74908;SDS011;63468;52.058;4.824;2024-03-25T11:12:35;16.58;;;14.32;;
74908;SDS011;63468;52.058;4.824;2024-03-25T11:15:10;15.00;;;13.48;;
74908;SDS011;63468;52.058;4.824;2024-03-25T11:17:36;14.77;;;13.15;;
74908;SDS011;63468;52.058;4.824;2024-03-25T11:20:11;15.73;;;14.05;;
74908;SDS011;63468;52.058;4.824;2024-03-25T11:22:50;15.02;;;13.52;;
74908;SDS011;63468;52.058;4.824;2024-03-25T11:25:16;16.48;;;12.95;;
74908;SDS011;63468;52.058;4.824;2024-03-25T11:27:43;18.05;;;15.55;;
74908;SDS011;63468;52.058;4.824;2024-03-25T11:30:10;23.88;;;14.88;;
74908;SDS011;63468;52.058;4.824;2024-03-25T11:32:43;17.60;;;14.50;;
74908;SDS011;63468;52.058;4.824;2024-03-25T11:35:09;20.27;;;15.02;;
74908;SDS011;63468;52.058;4.824;2024-03-25T11:37:39;19.02;;;15.10;;
74908;SDS011;63468;52.058;4.824;2024-03-25T11:40:05;14.98;;;13.43;;
74908;SDS011;63468;52.058;4.824;2024-03-25T11:42:32;13.93;;;12.43;;
74908;SDS011;63468;52.058;4.824;2024-03-25T11:44:59;17.17;;;13.85;;
74908;SDS011;63468;52.058;4.824;2024-03-25T11:47:25;15.02;;;13.60;;
74908;SDS011;63468;52.058;4.824;2024-03-25T11:49:51;14.80;;;13.27;;
74908;SDS011;63468;52.058;4.824;2024-03-25T11:52:16;13.95;;;12.50;;
74908;SDS011;63468;52.058;4.824;2024-03-25T11:54:42;17.55;;;14.15;;
74908;SDS011;63468;52.058;4.824;2024-03-25T11:57:07;17.40;;;14.60;;
74908;SDS011;63468;52.058;4.824;2024-03-25T11:59:33;14.65;;;13.20;;
74908;SDS011;63468;52.058;4.824;2024-03-25T12:01:59;15.32;;;13.38;;
74908;SDS011;63468;52.058;4.824;2024-03-25T12:04:24;15.23;;;13.70;;
74908;SDS011;63468;52.058;4.824;2024-03-25T12:06:49;14.23;;;13.02;;
74908;SDS011;63468;52.058;4.824;2024-03-25T12:09:15;15.40;;;14.15;;
74908;SDS011;63468;52.058;4.824;2024-03-25T12:11:58;15.77;;;14.23;;
74908;SDS011;63468;52.058;4.824;2024-03-25T12:14:24;14.93;;;13.63;;
74908;SDS011;63468;52.058;4.824;2024-03-25T12:16:54;15.85;;;14.30;;
74908;SDS011;63468;52.058;4.824;2024-03-25T12:19:20;16.55;;;14.93;;
74908;SDS011;63468;52.058;4.824;2024-03-25T12:21:46;16.25;;;14.40;;
74908;SDS011;63468;52.058;4.824;2024-03-25T12:24:13;14.80;;;13.50;;
74908;SDS011;63468;52.058;4.824;2024-03-25T12:26:38;16.27;;;14.88;;
74908;SDS011;63468;52.058;4.824;2024-03-25T12:29:03;15.95;;;14.07;;
74908;SDS011;63468;52.058;4.824;2024-03-25T12:31:29;15.38;;;13.93;;
74908;SDS011;63468;52.058;4.824;2024-03-25T12:33:55;15.93;;;14.15;;
74908;SDS011;63468;52.058;4.824;2024-03-25T12:36:20;17.77;;;15.85;;
74908;SDS011;63468;52.058;4.824;2024-03-25T12:38:53;17.58;;;15.65;;
74908;SDS011;63468;52.058;4.824;2024-03-25T12:41:21;16.98;;;15.07;;
74908;SDS011;63468;52.058;4.824;2024-03-25T12:43:47;17.75;;;15.82;;
74908;SDS011;63468;52.058;4.824;2024-03-25T12:46:15;17.25;;;15.63;;
74908;SDS011;63468;52.058;4.824;2024-03-25T12:48:40;15.18;;;13.68;;
74908;SDS011;63468;52.058;4.824;2024-03-25T12:51:06;15.95;;;14.27;;
74908;SDS011;63468;52.058;4.824;2024-03-25T12:53:36;17.27;;;15.20;;
74908;SDS011;63468;52.058;4.824;2024-03-25T12:56:01;17.17;;;14.95;;
74908;SDS011;63468;52.058;4.824;2024-03-25T12:58:27;17.42;;;14.95;;
74908;SDS011;63468;52.058;4.824;2024-03-25T13:00:53;17.05;;;15.38;;
74908;SDS011;63468;52.058;4.824;2024-03-25T13:03:18;17.23;;;15.40;;
74908;SDS011;63468;52.058;4.824;2024-03-25T13:05:43;16.35;;;13.93;;
74908;SDS011;63468;52.058;4.824;2024-03-25T13:08:09;17.45;;;14.07;;
74908;SDS011;63468;52.058;4.824;2024-03-25T13:10:34;16.13;;;13.63;;
74908;SDS011;63468;52.058;4.824;2024-03-25T13:13:01;15.93;;;14.45;;
74908;SDS011;63468;52.058;4.824;2024-03-25T13:15:27;17.50;;;15.70;;
74908;SDS011;63468;52.058;4.824;2024-03-25T13:17:53;16.08;;;14.05;;
74908;SDS011;63468;52.058;4.824;2024-03-25T13:20:18;17.40;;;15.20;;
74908;SDS011;63468;52.058;4.824;2024-03-25T13:22:44;15.50;;;13.82;;
74908;SDS011;63468;52.058;4.824;2024-03-25T13:25:10;14.40;;;12.68;;
74908;SDS011;63468;52.058;4.824;2024-03-25T13:27:36;14.70;;;13.05;;
74908;SDS011;63468;52.058;4.824;2024-03-25T13:30:01;15.27;;;13.68;;
74908;SDS011;63468;52.058;4.824;2024-03-25T13:32:27;16.33;;;14.45;;
74908;SDS011;63468;52.058;4.824;2024-03-25T13:34:52;13.60;;;12.20;;
74908;SDS011;63468;52.058;4.824;2024-03-25T13:37:18;13.85;;;11.90;;
74908;SDS011;63468;52.058;4.824;2024-03-25T13:39:43;13.30;;;11.90;;
74908;SDS011;63468;52.058;4.824;2024-03-25T13:42:08;16.02;;;12.18;;
74908;SDS011;63468;52.058;4.824;2024-03-25T13:44:34;15.23;;;13.57;;
74908;SDS011;63468;52.058;4.824;2024-03-25T13:46:59;15.25;;;13.90;;
74908;SDS011;63468;52.058;4.824;2024-03-25T13:49:24;15.40;;;13.85;;
74908;SDS011;63468;52.058;4.824;2024-03-25T13:51:56;14.05;;;12.55;;
74908;SDS011;63468;52.058;4.824;2024-03-25T13:54:26;14.00;;;12.02;;
74908;SDS011;63468;52.058;4.824;2024-03-25T13:56:51;14.88;;;13.45;;
74908;SDS011;63468;52.058;4.824;2024-03-25T13:59:17;14.73;;;13.27;;
74908;SDS011;63468;52.058;4.824;2024-03-25T14:01:42;15.65;;;13.98;;
74908;SDS011;63468;52.058;4.824;2024-03-25T14:04:08;14.65;;;13.00;;
74908;SDS011;63468;52.058;4.824;2024-03-25T14:06:33;14.93;;;13.27;;
74908;SDS011;63468;52.058;4.824;2024-03-25T14:08:59;17.33;;;13.98;;
74908;SDS011;63468;52.058;4.824;2024-03-25T14:11:25;14.75;;;13.40;;
74908;SDS011;63468;52.058;4.824;2024-03-25T14:13:50;14.60;;;13.20;;
74908;SDS011;63468;52.058;4.824;2024-03-25T14:16:15;14.25;;;12.85;;
74908;SDS011;63468;52.058;4.824;2024-03-25T14:18:41;15.02;;;13.63;;